Terminal Aerodrome Forecast
Issued by NWS Cleveland, OH

Home | Current Version | Previous Version | Graphics & Text | Print | Product List | Glossary On
Versions: 1 2 3 4 5 6 7 8 9 10 11 12 13 14 15 16 17 18 19 20
000
FTUS41 KCLE 231500 AAB
TAFYNG
TAF AMD
KYNG 231529Z 2315/2412 13010KT 5SM BR BKN007 OVC010
      TEMPO 2319/2323 6SM SCT010 BKN020
     FM240600 14006KT 3SM -SHRA BR OVC003=

USA.gov is the U.S. government's official web portal to all federal, state and local government web resources and services.